sensor_id;sensor_type;location;lat;lon;timestamp;pressure;altitude;pressure_sealevel;temperature;humidity
74708;BME280;63360;50.104;8.074;2023-12-28T00:01:43;96996.22;;;5.80;100.00
74708;BME280;63360;50.104;8.074;2023-12-28T00:04:09;96999.28;;;5.64;100.00
74708;BME280;63360;50.104;8.074;2023-12-28T00:06:36;96995.41;;;5.66;100.00
74708;BME280;63360;50.104;8.074;2023-12-28T00:09:02;96991.69;;;5.72;100.00
74708;BME280;63360;50.104;8.074;2023-12-28T00:11:37;96993.94;;;5.79;100.00
74708;BME280;63360;50.104;8.074;2023-12-28T00:14:03;97000.75;;;5.93;100.00
74708;BME280;63360;50.104;8.074;2023-12-28T00:16:33;97001.94;;;6.01;100.00
74708;BME280;63360;50.104;8.074;2023-12-28T00:19:00;96999.28;;;6.06;100.00
74708;BME280;63360;50.104;8.074;2023-12-28T00:21:32;97002.06;;;6.09;100.00
74708;BME280;63360;50.104;8.074;2023-12-28T00:23:59;97008.53;;;6.44;100.00
74708;BME280;63360;50.104;8.074;2023-12-28T00:26:25;97017.84;;;6.45;100.00
74708;BME280;63360;50.104;8.074;2023-12-28T00:28:51;97004.41;;;6.62;100.00
74708;BME280;63360;50.104;8.074;2023-12-28T00:31:18;96995.41;;;6.59;100.00
74708;BME280;63360;50.104;8.074;2023-12-28T00:33:44;97006.81;;;6.72;100.00
74708;BME280;63360;50.104;8.074;2023-12-28T00:36:11;96990.56;;;6.85;100.00
74708;BME280;63360;50.104;8.074;2023-12-28T00:38:38;96985.19;;;6.82;100.00
74708;BME280;63360;50.104;8.074;2023-12-28T00:41:04;96993.94;;;6.86;100.00
74708;BME280;63360;50.104;8.074;2023-12-28T00:43:30;96976.59;;;6.86;100.00
74708;BME280;63360;50.104;8.074;2023-12-28T00:45:57;96982.16;;;6.93;100.00
74708;BME280;63360;50.104;8.074;2023-12-28T00:48:23;96986.97;;;7.13;100.00
74708;BME280;63360;50.104;8.074;2023-12-28T00:50:50;96977.41;;;7.27;100.00
74708;BME280;63360;50.104;8.074;2023-12-28T00:53:16;96971.38;;;7.18;100.00
74708;BME280;63360;50.104;8.074;2023-12-28T00:55:43;96962.66;;;7.14;100.00
74708;BME280;63360;50.104;8.074;2023-12-28T00:58:09;96988.97;;;7.16;100.00
74708;BME280;63360;50.104;8.074;2023-12-28T01:00:36;96998.97;;;7.23;100.00
74708;BME280;63360;50.104;8.074;2023-12-28T01:03:02;96995.59;;;7.22;100.00
74708;BME280;63360;50.104;8.074;2023-12-28T01:05:29;97006.91;;;7.26;100.00
74708;BME280;63360;50.104;8.074;2023-12-28T01:07:55;97023.19;;;7.27;100.00
74708;BME280;63360;50.104;8.074;2023-12-28T01:10:22;97022.34;;;7.31;100.00
74708;BME280;63360;50.104;8.074;2023-12-28T01:12:49;97017.84;;;7.23;100.00
74708;BME280;63360;50.104;8.074;2023-12-28T01:15:15;97023.69;;;7.29;100.00
74708;BME280;63360;50.104;8.074;2023-12-28T01:17:43;97014.56;;;7.18;100.00
74708;BME280;63360;50.104;8.074;2023-12-28T01:20:10;97025.00;;;7.13;100.00
74708;BME280;63360;50.104;8.074;2023-12-28T01:22:37;97028.47;;;7.22;100.00
74708;BME280;63360;50.104;8.074;2023-12-28T01:25:03;97016.88;;;7.19;100.00
74708;BME280;63360;50.104;8.074;2023-12-28T01:27:30;97031.72;;;7.27;100.00
74708;BME280;63360;50.104;8.074;2023-12-28T01:29:56;97042.19;;;7.36;100.00
74708;BME280;63360;50.104;8.074;2023-12-28T01:32:23;97044.56;;;7.32;100.00
74708;BME280;63360;50.104;8.074;2023-12-28T01:34:49;97032.78;;;7.26;100.00
74708;BME280;63360;50.104;8.074;2023-12-28T01:37:16;97060.00;;;7.38;100.00
74708;BME280;63360;50.104;8.074;2023-12-28T01:39:42;97062.28;;;7.25;100.00
74708;BME280;63360;50.104;8.074;2023-12-28T01:42:09;97066.34;;;7.31;100.00
74708;BME280;63360;50.104;8.074;2023-12-28T01:44:35;97050.22;;;7.21;100.00
74708;BME280;63360;50.104;8.074;2023-12-28T01:47:02;97060.63;;;7.16;100.00
74708;BME280;63360;50.104;8.074;2023-12-28T01:49:29;97067.34;;;7.17;100.00
74708;BME280;63360;50.104;8.074;2023-12-28T01:51:56;97076.94;;;7.16;100.00
74708;BME280;63360;50.104;8.074;2023-12-28T01:54:23;97084.00;;;7.11;100.00
74708;BME280;63360;50.104;8.074;2023-12-28T01:56:49;97073.19;;;7.09;100.00
74708;BME280;63360;50.104;8.074;2023-12-28T01:59:16;97081.78;;;7.04;100.00
74708;BME280;63360;50.104;8.074;2023-12-28T02:01:42;97076.88;;;7.03;100.00
74708;BME280;63360;50.104;8.074;2023-12-28T02:04:09;97084.09;;;7.06;100.00
74708;BME280;63360;50.104;8.074;2023-12-28T02:06:36;97090.41;;;7.13;100.00
74708;BME280;63360;50.104;8.074;2023-12-28T02:09:02;97086.41;;;7.07;100.00
74708;BME280;63360;50.104;8.074;2023-12-28T02:11:29;97077.66;;;7.03;100.00
74708;BME280;63360;50.104;8.074;2023-12-28T02:13:55;97090.97;;;6.97;100.00
74708;BME280;63360;50.104;8.074;2023-12-28T02:16:36;97094.03;;;6.99;100.00
74708;BME280;63360;50.104;8.074;2023-12-28T02:21:59;97090.75;;;6.93;100.00
74708;BME280;63360;50.104;8.074;2023-12-28T02:24:25;97090.28;;;6.91;100.00
74708;BME280;63360;50.104;8.074;2023-12-28T02:26:52;97088.81;;;6.85;100.00
74708;BME280;63360;50.104;8.074;2023-12-28T02:29:18;97090.19;;;6.96;100.00
74708;BME280;63360;50.104;8.074;2023-12-28T02:32:00;97088.53;;;6.87;100.00
74708;BME280;63360;50.104;8.074;2023-12-28T02:34:37;97093.03;;;6.81;100.00
74708;BME280;63360;50.104;8.074;2023-12-28T02:37:06;97096.56;;;6.85;100.00
74708;BME280;63360;50.104;8.074;2023-12-28T02:39:33;97094.59;;;6.96;100.00
74708;BME280;63360;50.104;8.074;2023-12-28T02:42:00;97096.88;;;6.97;100.00
74708;BME280;63360;50.104;8.074;2023-12-28T02:44:27;97101.03;;;6.98;100.00
74708;BME280;63360;50.104;8.074;2023-12-28T02:46:53;97101.16;;;7.07;100.00
74708;BME280;63360;50.104;8.074;2023-12-28T02:49:20;97100.09;;;7.08;100.00
74708;BME280;63360;50.104;8.074;2023-12-28T02:51:46;97096.94;;;7.11;100.00
74708;BME280;63360;50.104;8.074;2023-12-28T02:54:13;97103.34;;;7.13;100.00
74708;BME280;63360;50.104;8.074;2023-12-28T02:56:40;97111.72;;;7.10;100.00
74708;BME280;63360;50.104;8.074;2023-12-28T02:59:07;97095.13;;;7.11;100.00
74708;BME280;63360;50.104;8.074;2023-12-28T03:01:33;97115.94;;;7.20;100.00
74708;BME280;63360;50.104;8.074;2023-12-28T03:04:00;97119.16;;;7.12;100.00
74708;BME280;63360;50.104;8.074;2023-12-28T03:06:26;97117.63;;;7.11;100.00
74708;BME280;63360;50.104;8.074;2023-12-28T03:08:53;97121.63;;;7.03;100.00
74708;BME280;63360;50.104;8.074;2023-12-28T03:11:19;97116.75;;;7.02;100.00
74708;BME280;63360;50.104;8.074;2023-12-28T03:13:46;97097.44;;;7.13;100.00
74708;BME280;63360;50.104;8.074;2023-12-28T03:16:13;97105.13;;;7.18;100.00
74708;BME280;63360;50.104;8.074;2023-12-28T03:18:40;97109.38;;;7.09;100.00
74708;BME280;63360;50.104;8.074;2023-12-28T03:21:06;97094.66;;;7.09;100.00
74708;BME280;63360;50.104;8.074;2023-12-28T03:23:33;97089.75;;;7.08;100.00
74708;BME280;63360;50.104;8.074;2023-12-28T03:26:00;97105.22;;;6.94;100.00
74708;BME280;63360;50.104;8.074;2023-12-28T03:28:27;97099.28;;;6.94;100.00
74708;BME280;63360;50.104;8.074;2023-12-28T03:30:53;97103.25;;;7.05;100.00
74708;BME280;63360;50.104;8.074;2023-12-28T03:33:20;97105.22;;;6.94;100.00
74708;BME280;63360;50.104;8.074;2023-12-28T03:35:46;97107.31;;;6.92;100.00
74708;BME280;63360;50.104;8.074;2023-12-28T03:38:13;97094.97;;;6.89;100.00
74708;BME280;63360;50.104;8.074;2023-12-28T03:40:39;97112.56;;;6.87;100.00
74708;BME280;63360;50.104;8.074;2023-12-28T03:43:05;97113.19;;;6.98;100.00
74708;BME280;63360;50.104;8.074;2023-12-28T03:45:32;97096.56;;;6.85;100.00
74708;BME280;63360;50.104;8.074;2023-12-28T03:47:58;97098.59;;;6.88;100.00
74708;BME280;63360;50.104;8.074;2023-12-28T03:50:25;97108.38;;;6.91;100.00
74708;BME280;63360;50.104;8.074;2023-12-28T03:52:52;97090.72;;;6.80;100.00
74708;BME280;63360;50.104;8.074;2023-12-28T03:55:18;97105.59;;;6.88;100.00
74708;BME280;63360;50.104;8.074;2023-12-28T03:57:44;97119.38;;;6.83;100.00
74708;BME280;63360;50.104;8.074;2023-12-28T04:00:13;97108.47;;;6.86;100.00
74708;BME280;63360;50.104;8.074;2023-12-28T04:02:41;97104.47;;;6.94;100.00
74708;BME280;63360;50.104;8.074;2023-12-28T04:05:07;97090.63;;;6.85;100.00
74708;BME280;63360;50.104;8.074;2023-12-28T04:07:34;97112.47;;;6.92;100.00
74708;BME280;63360;50.104;8.074;2023-12-28T04:10:00;97120.97;;;6.79;100.00
74708;BME280;63360;50.104;8.074;2023-12-28T04:12:27;97124.06;;;6.81;100.00
74708;BME280;63360;50.104;8.074;2023-12-28T04:14:54;97103.72;;;6.56;100.00
74708;BME280;63360;50.104;8.074;2023-12-28T04:17:20;97114.06;;;6.56;100.00
74708;BME280;63360;50.104;8.074;2023-12-28T04:19:47;97109.66;;;6.56;100.00
74708;BME280;63360;50.104;8.074;2023-12-28T04:22:14;97094.22;;;6.51;100.00
74708;BME280;63360;50.104;8.074;2023-12-28T04:24:40;97126.06;;;6.47;100.00
74708;BME280;63360;50.104;8.074;2023-12-28T04:27:07;97117.13;;;6.39;100.00
74708;BME280;63360;50.104;8.074;2023-12-28T04:29:35;97132.97;;;6.33;100.00
74708;BME280;63360;50.104;8.074;2023-12-28T04:32:01;97111.94;;;6.39;100.00
74708;BME280;63360;50.104;8.074;2023-12-28T04:34:28;97107.22;;;6.46;100.00
74708;BME280;63360;50.104;8.074;2023-12-28T04:36:54;97108.47;;;6.49;100.00
74708;BME280;63360;50.104;8.074;2023-12-28T04:39:20;97124.88;;;6.58;100.00
74708;BME280;63360;50.104;8.074;2023-12-28T04:41:47;97133.63;;;6.62;100.00
74708;BME280;63360;50.104;8.074;2023-12-28T04:44:13;97128.94;;;6.64;100.00
74708;BME280;63360;50.104;8.074;2023-12-28T04:46:40;97117.63;;;6.60;100.00
74708;BME280;63360;50.104;8.074;2023-12-28T04:49:10;97132.69;;;6.71;100.00
74708;BME280;63360;50.104;8.074;2023-12-28T04:51:44;97148.91;;;6.77;100.00
74708;BME280;63360;50.104;8.074;2023-12-28T04:54:11;97145.91;;;6.70;100.00
74708;BME280;63360;50.104;8.074;2023-12-28T04:56:37;97124.53;;;6.64;100.00
74708;BME280;63360;50.104;8.074;2023-12-28T04:59:04;97148.50;;;6.70;100.00
74708;BME280;63360;50.104;8.074;2023-12-28T05:01:30;97156.50;;;6.87;100.00
74708;BME280;63360;50.104;8.074;2023-12-28T05:03:59;97148.75;;;6.87;100.00
74708;BME280;63360;50.104;8.074;2023-12-28T05:06:27;97139.13;;;6.93;100.00
74708;BME280;63360;50.104;8.074;2023-12-28T05:08:54;97151.84;;;6.89;100.00
74708;BME280;63360;50.104;8.074;2023-12-28T05:11:21;97152.75;;;6.98;100.00
74708;BME280;63360;50.104;8.074;2023-12-28T05:13:47;97157.44;;;6.96;100.00
74708;BME280;63360;50.104;8.074;2023-12-28T05:16:13;97145.63;;;6.90;100.00
74708;BME280;63360;50.104;8.074;2023-12-28T05:18:40;97149.81;;;6.86;100.00
74708;BME280;63360;50.104;8.074;2023-12-28T05:21:06;97146.47;;;6.86;100.00
74708;BME280;63360;50.104;8.074;2023-12-28T05:23:33;97141.84;;;6.83;100.00
74708;BME280;63360;50.104;8.074;2023-12-28T05:25:59;97143.25;;;6.75;100.00
74708;BME280;63360;50.104;8.074;2023-12-28T05:28:25;97142.56;;;6.69;100.00
74708;BME280;63360;50.104;8.074;2023-12-28T05:30:52;97149.06;;;6.67;100.00
74708;BME280;63360;50.104;8.074;2023-12-28T05:33:18;97145.28;;;6.59;100.00
74708;BME280;63360;50.104;8.074;2023-12-28T05:35:45;97131.84;;;6.39;100.00
74708;BME280;63360;50.104;8.074;2023-12-28T05:38:11;97140.53;;;6.48;100.00
74708;BME280;63360;50.104;8.074;2023-12-28T05:40:38;97151.41;;;6.45;100.00
74708;BME280;63360;50.104;8.074;2023-12-28T05:43:04;97143.78;;;6.35;100.00
74708;BME280;63360;50.104;8.074;2023-12-28T05:45:30;97159.78;;;6.37;100.00
74708;BME280;63360;50.104;8.074;2023-12-28T05:47:57;97153.78;;;6.23;100.00
74708;BME280;63360;50.104;8.074;2023-12-28T05:50:24;97149.34;;;6.23;100.00
74708;BME280;63360;50.104;8.074;2023-12-28T05:52:50;97161.00;;;6.21;100.00
74708;BME280;63360;50.104;8.074;2023-12-28T05:55:17;97157.16;;;6.18;100.00
74708;BME280;63360;50.104;8.074;2023-12-28T05:57:43;97160.56;;;6.14;100.00
74708;BME280;63360;50.104;8.074;2023-12-28T06:00:11;97155.47;;;6.08;100.00
74708;BME280;63360;50.104;8.074;2023-12-28T06:02:37;97147.25;;;6.06;100.00
74708;BME280;63360;50.104;8.074;2023-12-28T06:05:04;97134.38;;;6.01;100.00
74708;BME280;63360;50.104;8.074;2023-12-28T06:07:30;97144.38;;;6.08;100.00
74708;BME280;63360;50.104;8.074;2023-12-28T06:09:57;97137.16;;;6.05;100.00
74708;BME280;63360;50.104;8.074;2023-12-28T06:12:23;97152.72;;;6.00;100.00
74708;BME280;63360;50.104;8.074;2023-12-28T06:14:50;97155.38;;;5.95;100.00
74708;BME280;63360;50.104;8.074;2023-12-28T06:17:16;97141.97;;;5.93;100.00
74708;BME280;63360;50.104;8.074;2023-12-28T06:19:44;97136.94;;;6.01;100.00
74708;BME280;63360;50.104;8.074;2023-12-28T06:22:11;97147.44;;;6.10;100.00
74708;BME280;63360;50.104;8.074;2023-12-28T06:24:38;97139.22;;;6.08;100.00
74708;BME280;63360;50.104;8.074;2023-12-28T06:27:06;97143.00;;;6.16;100.00
74708;BME280;63360;50.104;8.074;2023-12-28T06:29:32;97136.91;;;6.06;100.00
74708;BME280;63360;50.104;8.074;2023-12-28T06:31:59;97144.66;;;6.06;100.00
74708;BME280;63360;50.104;8.074;2023-12-28T06:34:25;97158.78;;;6.14;100.00
74708;BME280;63360;50.104;8.074;2023-12-28T06:36:53;97166.53;;;6.14;100.00
74708;BME280;63360;50.104;8.074;2023-12-28T06:39:19;97166.28;;;6.10;100.00
74708;BME280;63360;50.104;8.074;2023-12-28T06:41:49;97167.91;;;6.06;100.00
74708;BME280;63360;50.104;8.074;2023-12-28T06:44:15;97158.53;;;6.10;100.00
74708;BME280;63360;50.104;8.074;2023-12-28T06:46:42;97160.94;;;6.26;100.00
74708;BME280;63360;50.104;8.074;2023-12-28T06:49:08;97148.69;;;6.13;100.00
74708;BME280;63360;50.104;8.074;2023-12-28T06:51:37;97159.97;;;6.22;100.00
74708;BME280;63360;50.104;8.074;2023-12-28T06:54:03;97150.91;;;6.24;100.00
74708;BME280;63360;50.104;8.074;2023-12-28T06:56:30;97155.38;;;6.37;100.00
74708;BME280;63360;50.104;8.074;2023-12-28T06:58:56;97157.91;;;6.42;100.00
74708;BME280;63360;50.104;8.074;2023-12-28T07:01:22;97157.13;;;6.42;100.00
74708;BME280;63360;50.104;8.074;2023-12-28T07:03:49;97150.53;;;6.54;100.00
74708;BME280;63360;50.104;8.074;2023-12-28T07:06:16;97144.38;;;6.50;100.00
74708;BME280;63360;50.104;8.074;2023-12-28T07:08:42;97147.44;;;6.52;100.00
74708;BME280;63360;50.104;8.074;2023-12-28T07:11:11;97148.75;;;6.50;100.00
74708;BME280;63360;50.104;8.074;2023-12-28T07:13:38;97143.09;;;6.48;100.00
74708;BME280;63360;50.104;8.074;2023-12-28T07:16:05;97149.94;;;6.57;100.00
74708;BME280;63360;50.104;8.074;2023-12-28T07:18:34;97153.31;;;6.58;100.00
74708;BME280;63360;50.104;8.074;2023-12-28T07:21:00;97153.31;;;6.58;100.00
74708;BME280;63360;50.104;8.074;2023-12-28T07:23:27;97158.53;;;6.53;100.00
74708;BME280;63360;50.104;8.074;2023-12-28T07:25:53;97153.09;;;6.54;100.00
74708;BME280;63360;50.104;8.074;2023-12-28T07:28:20;97165.75;;;6.56;100.00
74708;BME280;63360;50.104;8.074;2023-12-28T07:30:47;97173.72;;;6.59;100.00
74708;BME280;63360;50.104;8.074;2023-12-28T07:33:13;97163.94;;;6.56;100.00
74708;BME280;63360;50.104;8.074;2023-12-28T07:35:40;97160.97;;;6.63;100.00
74708;BME280;63360;50.104;8.074;2023-12-28T07:38:06;97170.22;;;6.69;100.00
74708;BME280;63360;50.104;8.074;2023-12-28T07:40:33;97159.94;;;6.64;100.00
74708;BME280;63360;50.104;8.074;2023-12-28T07:42:59;97172.47;;;6.57;100.00
74708;BME280;63360;50.104;8.074;2023-12-28T07:45:27;97173.00;;;6.54;100.00
74708;BME280;63360;50.104;8.074;2023-12-28T07:47:53;97191.03;;;6.59;100.00
74708;BME280;63360;50.104;8.074;2023-12-28T07:50:20;97183.91;;;6.51;100.00
74708;BME280;63360;50.104;8.074;2023-12-28T07:52:47;97187.13;;;6.61;100.00
74708;BME280;63360;50.104;8.074;2023-12-28T07:55:14;97188.03;;;6.70;100.00
74708;BME280;63360;50.104;8.074;2023-12-28T07:57:41;97173.78;;;6.73;100.00
74708;BME280;63360;50.104;8.074;2023-12-28T08:00:09;97174.13;;;6.85;100.00
74708;BME280;63360;50.104;8.074;2023-12-28T08:02:36;97180.56;;;6.88;100.00
74708;BME280;63360;50.104;8.074;2023-12-28T08:05:03;97184.19;;;6.87;100.00
74708;BME280;63360;50.104;8.074;2023-12-28T08:07:30;97169.44;;;6.87;100.00
74708;BME280;63360;50.104;8.074;2023-12-28T08:09:56;97181.66;;;6.82;100.00
74708;BME280;63360;50.104;8.074;2023-12-28T08:12:23;97178.53;;;6.85;100.00
74708;BME280;63360;50.104;8.074;2023-12-28T08:14:50;97180.78;;;6.72;100.00
74708;BME280;63360;50.104;8.074;2023-12-28T08:17:17;97184.69;;;6.70;100.00
74708;BME280;63360;50.104;8.074;2023-12-28T08:19:43;97174.97;;;6.81;100.00
74708;BME280;63360;50.104;8.074;2023-12-28T08:22:10;97183.00;;;6.79;100.00
74708;BME280;63360;50.104;8.074;2023-12-28T08:24:36;97174.75;;;6.77;100.00
74708;BME280;63360;50.104;8.074;2023-12-28T08:27:03;97181.13;;;6.85;100.00
74708;BME280;63360;50.104;8.074;2023-12-28T08:29:29;97180.28;;;6.89;100.00
74708;BME280;63360;50.104;8.074;2023-12-28T08:31:56;97197.53;;;6.94;100.00
74708;BME280;63360;50.104;8.074;2023-12-28T08:34:22;97181.59;;;6.87;100.00
74708;BME280;63360;50.104;8.074;2023-12-28T08:36:49;97189.88;;;6.89;100.00
74708;BME280;63360;50.104;8.074;2023-12-28T08:39:15;97182.50;;;6.96;100.00
74708;BME280;63360;50.104;8.074;2023-12-28T08:41:42;97187.63;;;7.01;100.00
74708;BME280;63360;50.104;8.074;2023-12-28T08:44:08;97194.94;;;7.12;100.00
74708;BME280;63360;50.104;8.074;2023-12-28T08:46:34;97188.59;;;7.05;100.00
74708;BME280;63360;50.104;8.074;2023-12-28T08:49:01;97197.47;;;7.17;100.00
74708;BME280;63360;50.104;8.074;2023-12-28T08:51:27;97204.03;;;7.28;100.00
74708;BME280;63360;50.104;8.074;2023-12-28T08:53:54;97193.06;;;7.18;100.00
74708;BME280;63360;50.104;8.074;2023-12-28T08:56:21;97205.34;;;7.26;100.00
74708;BME280;63360;50.104;8.074;2023-12-28T08:58:48;97202.31;;;7.38;100.00
74708;BME280;63360;50.104;8.074;2023-12-28T09:01:23;97192.53;;;7.34;100.00
74708;BME280;63360;50.104;8.074;2023-12-28T09:03:52;97206.16;;;7.40;100.00
74708;BME280;63360;50.104;8.074;2023-12-28T09:06:20;97207.41;;;7.43;100.00
74708;BME280;63360;50.104;8.074;2023-12-28T09:08:50;97211.22;;;7.31;100.00
74708;BME280;63360;50.104;8.074;2023-12-28T09:11:18;97198.28;;;7.31;100.00
74708;BME280;63360;50.104;8.074;2023-12-28T09:13:45;97191.09;;;7.28;100.00
74708;BME280;63360;50.104;8.074;2023-12-28T09:16:13;97199.25;;;7.36;100.00
74708;BME280;63360;50.104;8.074;2023-12-28T09:18:40;97212.09;;;7.41;100.00
74708;BME280;63360;50.104;8.074;2023-12-28T09:21:08;97211.25;;;7.45;100.00
74708;BME280;63360;50.104;8.074;2023-12-28T09:23:35;97211.84;;;7.42;100.00
74708;BME280;63360;50.104;8.074;2023-12-28T09:26:03;97207.50;;;7.38;100.00
74708;BME280;63360;50.104;8.074;2023-12-28T09:28:30;97204.72;;;7.34;100.00
74708;BME280;63360;50.104;8.074;2023-12-28T09:30:57;97207.91;;;7.45;100.00
74708;BME280;63360;50.104;8.074;2023-12-28T09:33:23;97217.75;;;7.43;100.00
74708;BME280;63360;50.104;8.074;2023-12-28T09:35:50;97223.91;;;7.47;100.00
74708;BME280;63360;50.104;8.074;2023-12-28T09:38:18;97222.09;;;7.47;100.00
74708;BME280;63360;50.104;8.074;2023-12-28T09:40:45;97225.53;;;7.43;100.00
74708;BME280;63360;50.104;8.074;2023-12-28T09:43:23;97227.06;;;7.44;100.00
74708;BME280;63360;50.104;8.074;2023-12-28T09:45:54;97238.41;;;7.48;100.00
74708;BME280;63360;50.104;8.074;2023-12-28T09:48:21;97229.78;;;7.52;100.00
74708;BME280;63360;50.104;8.074;2023-12-28T09:50:50;97242.16;;;7.55;100.00
74708;BME280;63360;50.104;8.074;2023-12-28T09:53:17;97233.06;;;7.58;100.00
74708;BME280;63360;50.104;8.074;2023-12-28T09:55:44;97230.97;;;7.60;100.00
74708;BME280;63360;50.104;8.074;2023-12-28T09:58:13;97231.88;;;7.82;100.00
74708;BME280;63360;50.104;8.074;2023-12-28T10:00:44;97223.34;;;7.82;100.00
74708;BME280;63360;50.104;8.074;2023-12-28T10:03:12;97237.59;;;7.98;100.00
74708;BME280;63360;50.104;8.074;2023-12-28T10:05:43;97218.84;;;8.01;100.00
74708;BME280;63360;50.104;8.074;2023-12-28T10:08:16;97234.50;;;8.10;100.00
74708;BME280;63360;50.104;8.074;2023-12-28T10:10:44;97239.41;;;8.11;100.00
74708;BME280;63360;50.104;8.074;2023-12-28T10:13:17;97228.09;;;8.21;100.00
74708;BME280;63360;50.104;8.074;2023-12-28T10:15:43;97234.53;;;8.23;100.00
74708;BME280;63360;50.104;8.074;2023-12-28T10:18:10;97219.97;;;8.27;100.00
74708;BME280;63360;50.104;8.074;2023-12-28T10:20:37;97218.63;;;8.30;100.00
74708;BME280;63360;50.104;8.074;2023-12-28T10:23:04;97228.41;;;8.46;100.00
74708;BME280;63360;50.104;8.074;2023-12-28T10:25:32;97240.69;;;8.54;100.00
74708;BME280;63360;50.104;8.074;2023-12-28T10:28:03;97233.69;;;8.41;100.00
74708;BME280;63360;50.104;8.074;2023-12-28T10:30:30;97240.69;;;8.41;100.00
74708;BME280;63360;50.104;8.074;2023-12-28T10:32:58;97233.22;;;8.53;100.00
74708;BME280;63360;50.104;8.074;2023-12-28T10:35:24;97221.28;;;8.66;100.00
74708;BME280;63360;50.104;8.074;2023-12-28T10:37:52;97229.44;;;8.73;100.00
74708;BME280;63360;50.104;8.074;2023-12-28T10:40:21;97220.78;;;8.77;100.00
74708;BME280;63360;50.104;8.074;2023-12-28T10:42:52;97232.00;;;8.86;100.00
74708;BME280;63360;50.104;8.074;2023-12-28T10:45:19;97234.00;;;8.89;100.00
74708;BME280;63360;50.104;8.074;2023-12-28T10:48:10;97230.69;;;8.75;100.00
74708;BME280;63360;50.104;8.074;2023-12-28T10:50:51;97238.38;;;8.67;100.00
74708;BME280;63360;50.104;8.074;2023-12-28T10:53:36;97247.41;;;8.69;100.00
74708;BME280;63360;50.104;8.074;2023-12-28T10:58:50;97229.38;;;8.64;100.00
74708;BME280;63360;50.104;8.074;2023-12-28T11:01:31;97236.00;;;8.70;100.00
74708;BME280;63360;50.104;8.074;2023-12-28T11:04:06;97233.41;;;8.70;100.00
74708;BME280;63360;50.104;8.074;2023-12-28T11:06:35;97235.22;;;8.56;100.00
74708;BME280;63360;50.104;8.074;2023-12-28T11:09:02;97226.47;;;8.66;100.00
74708;BME280;63360;50.104;8.074;2023-12-28T11:11:32;97227.50;;;8.78;100.00
74708;BME280;63360;50.104;8.074;2023-12-28T11:14:01;97231.53;;;8.84;100.00
74708;BME280;63360;50.104;8.074;2023-12-28T11:16:28;97226.19;;;8.81;100.00
74708;BME280;63360;50.104;8.074;2023-12-28T11:18:55;97227.59;;;8.87;100.00
74708;BME280;63360;50.104;8.074;2023-12-28T11:21:22;97231.16;;;8.91;100.00
74708;BME280;63360;50.104;8.074;2023-12-28T11:23:49;97220.28;;;8.89;100.00
74708;BME280;63360;50.104;8.074;2023-12-28T11:26:17;97214.22;;;8.93;100.00
74708;BME280;63360;50.104;8.074;2023-12-28T11:28:44;97227.19;;;8.93;100.00
74708;BME280;63360;50.104;8.074;2023-12-28T11:31:10;97225.28;;;8.85;100.00
74708;BME280;63360;50.104;8.074;2023-12-28T11:33:46;97225.41;;;8.67;100.00
74708;BME280;63360;50.104;8.074;2023-12-28T11:36:33;97226.84;;;8.73;100.00
74708;BME280;63360;50.104;8.074;2023-12-28T11:39:04;97227.34;;;8.61;100.00
74708;BME280;63360;50.104;8.074;2023-12-28T11:41:33;97222.06;;;8.66;100.00
74708;BME280;63360;50.104;8.074;2023-12-28T11:44:05;97225.81;;;8.60;100.00
74708;BME280;63360;50.104;8.074;2023-12-28T11:46:32;97216.50;;;8.59;100.00
74708;BME280;63360;50.104;8.074;2023-12-28T11:49:08;97209.97;;;8.62;100.00
74708;BME280;63360;50.104;8.074;2023-12-28T11:51:37;97216.28;;;8.69;100.00
74708;BME280;63360;50.104;8.074;2023-12-28T11:54:05;97215.41;;;8.74;100.00
74708;BME280;63360;50.104;8.074;2023-12-28T11:56:32;97200.31;;;8.76;100.00
74708;BME280;63360;50.104;8.074;2023-12-28T11:58:59;97191.78;;;8.75;100.00
74708;BME280;63360;50.104;8.074;2023-12-28T12:01:26;97199.34;;;8.85;100.00
74708;BME280;63360;50.104;8.074;2023-12-28T12:03:53;97195.28;;;8.93;100.00
74708;BME280;63360;50.104;8.074;2023-12-28T12:06:20;97181.28;;;8.94;100.00
74708;BME280;63360;50.104;8.074;2023-12-28T12:08:46;97170.25;;;8.88;100.00
74708;BME280;63360;50.104;8.074;2023-12-28T12:11:13;97173.31;;;8.90;100.00
74708;BME280;63360;50.104;8.074;2023-12-28T12:13:39;97183.50;;;8.87;100.00
74708;BME280;63360;50.104;8.074;2023-12-28T12:16:06;97184.97;;;8.79;100.00
74708;BME280;63360;50.104;8.074;2023-12-28T12:18:34;97169.75;;;8.86;100.00
74708;BME280;63360;50.104;8.074;2023-12-28T12:21:02;97168.41;;;8.89;100.00
74708;BME280;63360;50.104;8.074;2023-12-28T12:23:29;97155.84;;;8.82;100.00
74708;BME280;63360;50.104;8.074;2023-12-28T12:25:56;97154.03;;;8.83;100.00
74708;BME280;63360;50.104;8.074;2023-12-28T12:28:22;97158.63;;;8.86;100.00
74708;BME280;63360;50.104;8.074;2023-12-28T12:30:50;97161.09;;;8.91;100.00
74708;BME280;63360;50.104;8.074;2023-12-28T12:33:18;97150.03;;;8.99;100.00
74708;BME280;63360;50.104;8.074;2023-12-28T12:35:44;97146.47;;;8.95;100.00
74708;BME280;63360;50.104;8.074;2023-12-28T12:38:11;97145.31;;;9.01;100.00
74708;BME280;63360;50.104;8.074;2023-12-28T12:40:37;97126.84;;;9.02;100.00
74708;BME280;63360;50.104;8.074;2023-12-28T12:43:05;97133.75;;;9.07;100.00
74708;BME280;63360;50.104;8.074;2023-12-28T12:45:35;97115.72;;;9.02;100.00
74708;BME280;63360;50.104;8.074;2023-12-28T12:48:05;97144.13;;;9.07;100.00
74708;BME280;63360;50.104;8.074;2023-12-28T12:50:32;97129.75;;;9.01;100.00
74708;BME280;63360;50.104;8.074;2023-12-28T12:53:04;97132.66;;;8.99;100.00
74708;BME280;63360;50.104;8.074;2023-12-28T12:55:31;97144.47;;;8.92;100.00
74708;BME280;63360;50.104;8.074;2023-12-28T12:57:58;97140.16;;;8.87;100.00
74708;BME280;63360;50.104;8.074;2023-12-28T13:00:24;97122.47;;;8.89;100.00
74708;BME280;63360;50.104;8.074;2023-12-28T13:02:51;97114.53;;;8.86;100.00
74708;BME280;63360;50.104;8.074;2023-12-28T13:05:19;97123.84;;;8.87;100.00
74708;BME280;63360;50.104;8.074;2023-12-28T13:07:46;97110.75;;;8.92;100.00